Time;durP1;ratioP1;P1;durP2;ratioP2;P2;SDS_P1;SDS_P2;PMS_P1;PMS_P2;Temp;Humidity;BMP_temperature;BMP_pressure;BME280_temperature;BME280_humidity;BME280_pressure;Samples;Min_cycle;Max_cycle;Signal;HPM_P1;HPM_P2
2022/08/27 00:00:39;;;;;;;6.53;2.50;;;;;;;16.63;72.97;101676.44;5005844;28;20045;-75
2022/08/27 00:03:05;;;;;;;10.10;2.90;;;;;;;16.56;72.94;101672.75;5005930;28;20427;-75
2022/08/27 00:05:30;;;;;;;7.13;2.85;;;;;;;16.52;73.19;101664.38;5005645;28;20028;-76
2022/08/27 00:07:56;;;;;;;7.95;2.88;;;;;;;16.46;73.29;101663.16;4999085;28;20576;-75
2022/08/27 00:10:26;;;;;;;7.13;2.80;;;;;;;16.46;73.24;101686.72;5001172;28;20023;-75
2022/08/27 00:12:52;;;;;;;6.35;2.63;;;;;;;16.42;73.13;101674.88;5001669;28;20033;-75
2022/08/27 00:15:19;;;;;;;6.45;2.58;;;;;;;16.42;73.33;101672.25;4990877;28;20022;-75
2022/08/27 00:17:45;;;;;;;6.18;2.60;;;;;;;16.38;73.65;101677.91;5009692;28;20025;-74
2022/08/27 00:20:15;;;;;;;7.40;2.58;;;;;;;16.32;74.42;101674.06;5008802;28;20076;-75
2022/08/27 00:22:42;;;;;;;6.28;2.55;;;;;;;16.30;73.92;101664.72;5008351;28;20541;-75
2022/08/27 00:25:08;;;;;;;8.32;3.08;;;;;;;16.20;74.70;101664.72;5009796;28;20018;-75
2022/08/27 00:27:34;;;;;;;10.18;2.80;;;;;;;16.21;74.94;101663.75;5008380;28;20037;-75
2022/08/27 00:29:59;;;;;;;8.13;3.15;;;;;;;16.30;74.64;101668.16;5009015;28;20030;-75
2022/08/27 00:32:25;;;;;;;7.30;2.92;;;;;;;16.15;74.85;101666.94;5002714;28;20415;-75
2022/08/27 00:34:51;;;;;;;7.72;2.90;;;;;;;16.12;75.02;101664.63;5008938;28;20390;-75
2022/08/27 00:37:18;;;;;;;8.77;3.00;;;;;;;16.13;74.52;101659.22;5007875;28;20037;-74
2022/08/27 00:39:43;;;;;;;7.28;3.25;;;;;;;16.16;74.58;101656.31;5009404;28;20037;-75
2022/08/27 00:42:09;;;;;;;7.15;3.10;;;;;;;16.12;74.75;101657.59;5008833;28;20025;-74
2022/08/27 00:44:35;;;;;;;8.38;3.05;;;;;;;16.12;74.41;101648.91;5008336;28;20018;-75
2022/08/27 00:47:05;;;;;;;5.97;3.33;;;;;;;16.10;74.84;101653.44;5008356;28;20667;-75
2022/08/27 00:49:39;;;;;;;6.72;3.00;;;;;;;16.09;75.60;101649.19;5008328;28;20508;-75
2022/08/27 00:52:15;;;;;;;8.48;2.95;;;;;;;16.12;75.59;101656.75;5007952;28;20034;-76
2022/08/27 00:54:41;;;;;;;7.05;3.10;;;;;;;16.13;75.72;101654.00;4992801;28;20023;-76
2022/08/27 00:57:06;;;;;;;9.13;3.20;;;;;;;16.06;75.71;101649.47;4994962;28;20061;-75
2022/08/27 00:59:32;;;;;;;6.22;2.92;;;;;;;16.11;75.60;101660.31;5006454;28;20038;-75
2022/08/27 01:02:17;;;;;;;8.02;3.20;;;;;;;15.98;76.21;101655.38;4989578;28;20466;-75
2022/08/27 01:04:50;;;;;;;8.35;2.92;;;;;;;16.00;76.14;101647.41;5008278;28;20038;-75
2022/08/27 01:07:16;;;;;;;7.22;2.95;;;;;;;16.00;76.43;101657.84;5007126;28;20378;-75
2022/08/27 01:09:42;;;;;;;9.02;3.50;;;;;;;16.01;76.79;101659.53;5008739;28;20482;-75
2022/08/27 01:12:09;;;;;;;6.97;3.17;;;;;;;15.95;76.31;101652.25;4999727;28;20068;-75
2022/08/27 01:14:35;;;;;;;6.38;3.03;;;;;;;16.02;76.17;101661.19;5006626;28;20360;-75
2022/08/27 01:17:02;;;;;;;7.18;3.17;;;;;;;16.03;76.04;101658.41;4999338;28;20025;-74
2022/08/27 01:19:34;;;;;;;7.13;3.10;;;;;;;15.98;76.35;101665.03;5000090;28;20014;-75
2022/08/27 01:22:02;;;;;;;8.38;3.00;;;;;;;15.92;76.40;101664.63;4995985;28;20056;-75
2022/08/27 01:24:44;;;;;;;7.55;2.92;;;;;;;15.95;76.81;101660.91;5002061;28;20435;-75
2022/08/27 01:27:13;;;;;;;5.85;2.97;;;;;;;15.90;76.85;101663.94;4997690;28;20030;-76
2022/08/27 01:29:39;;;;;;;7.30;3.65;;;;;;;15.90;76.73;101653.47;5001405;28;20026;-75
2022/08/27 01:32:09;;;;;;;6.10;2.90;;;;;;;15.83;77.14;101652.41;5002957;28;20030;-75
2022/08/27 01:34:35;;;;;;;6.45;3.05;;;;;;;15.77;77.02;101650.34;4997256;28;20014;-75
2022/08/27 01:37:00;;;;;;;8.60;3.20;;;;;;;15.79;76.92;101653.63;4994651;28;20088;-74
2022/08/27 01:39:26;;;;;;;6.70;3.40;;;;;;;15.73;77.42;101651.56;5004082;28;20048;-77
2022/08/27 01:41:51;;;;;;;9.57;3.42;;;;;;;15.83;76.90;101651.56;4994496;28;20034;-75
2022/08/27 01:44:17;;;;;;;7.45;3.35;;;;;;;15.82;77.03;101653.34;4998118;28;20112;-74
2022/08/27 01:46:43;;;;;;;7.18;3.13;;;;;;;15.78;77.43;101654.59;4993821;28;20054;-75
2022/08/27 01:49:09;;;;;;;7.80;3.65;;;;;;;15.70;77.54;101664.91;4978252;28;20030;-75
2022/08/27 01:51:35;;;;;;;8.60;3.63;;;;;;;15.75;77.36;101644.41;4999196;28;20034;-77
2022/08/27 01:54:01;;;;;;;8.32;3.55;;;;;;;15.65;77.58;101644.44;4999925;28;20040;-75
2022/08/27 01:56:27;;;;;;;9.30;3.50;;;;;;;15.65;77.86;101648.81;5000210;28;20466;-75
2022/08/27 01:58:52;;;;;;;7.97;3.47;;;;;;;15.68;78.03;101645.94;5005930;28;20091;-75
2022/08/27 02:01:18;;;;;;;7.70;3.67;;;;;;;15.66;78.33;101642.63;4993755;28;20369;-75
2022/08/27 02:03:45;;;;;;;7.53;3.50;;;;;;;15.65;78.25;101648.81;5006178;28;20033;-75
2022/08/27 02:06:11;;;;;;;9.77;4.00;;;;;;;15.63;77.99;101635.06;5006429;28;20034;-75
2022/08/27 02:08:37;;;;;;;9.15;3.30;;;;;;;15.69;77.96;101644.97;4993190;28;20025;-75
2022/08/27 02:11:04;;;;;;;7.93;3.70;;;;;;;15.58;78.38;101645.06;5007977;28;20109;-75
2022/08/27 02:13:29;;;;;;;8.90;3.65;;;;;;;15.68;78.29;101643.31;4989028;28;20037;-75
2022/08/27 02:15:54;;;;;;;8.85;3.38;;;;;;;15.61;78.14;101642.19;5007778;28;20061;-74
2022/08/27 02:18:20;;;;;;;7.60;3.45;;;;;;;15.59;78.29;101638.88;5005900;28;20026;-75
2022/08/27 02:20:46;;;;;;;8.43;3.40;;;;;;;15.61;78.22;101642.19;5006761;28;20614;-75
2022/08/27 02:23:12;;;;;;;8.05;3.50;;;;;;;15.49;78.69;101632.84;5002159;28;20462;-76
2022/08/27 02:25:38;;;;;;;9.95;3.88;;;;;;;15.57;78.41;101638.19;4987663;28;20030;-75
2022/08/27 02:28:04;;;;;;;9.35;3.60;;;;;;;15.50;78.65;101629.25;5005222;28;20473;-75
2022/08/27 02:30:31;;;;;;;9.05;3.45;;;;;;;15.53;78.39;101644.66;4999694;28;20037;-75
2022/08/27 02:32:59;;;;;;;7.70;3.55;;;;;;;15.48;78.24;101631.16;5006765;28;20117;-75
2022/08/27 02:35:26;;;;;;;8.05;3.42;;;;;;;15.48;78.93;101636.38;4999709;28;20025;-75
2022/08/27 02:37:52;;;;;;;11.10;3.53;;;;;;;15.53;78.80;101634.19;4988805;28;20080;-75
2022/08/27 02:40:20;;;;;;;8.68;3.78;;;;;;;15.49;79.22;101638.06;5000822;28;20362;-75
2022/08/27 02:42:46;;;;;;;10.63;4.00;;;;;;;15.55;79.29;101637.50;4999919;28;20026;-74
2022/08/27 02:45:13;;;;;;;8.18;3.60;;;;;;;15.55;79.42;101634.91;4994015;28;20035;-74
2022/08/27 02:47:39;;;;;;;9.23;3.85;;;;;;;15.45;80.12;101626.22;5005356;28;20025;-75
2022/08/27 02:50:06;;;;;;;8.45;3.33;;;;;;;15.50;80.21;101624.03;5000540;28;20033;-75
2022/08/27 02:52:32;;;;;;;7.38;3.53;;;;;;;15.48;79.71;101618.91;5004919;28;20030;-74
2022/08/27 02:54:57;;;;;;;9.35;3.78;;;;;;;15.55;79.97;101627.06;4980013;28;20068;-74
2022/08/27 02:57:23;;;;;;;8.40;3.50;;;;;;;15.60;79.32;101630.09;4988413;28;20370;-74
2022/08/27 02:59:52;;;;;;;8.38;3.80;;;;;;;15.55;79.67;101621.81;4997622;28;20036;-76
2022/08/27 03:02:19;;;;;;;8.73;3.63;;;;;;;15.56;79.57;101621.69;5001642;28;20068;-74
2022/08/27 03:04:45;;;;;;;8.40;3.60;;;;;;;15.52;80.12;101616.84;5005527;28;20314;-74
2022/08/27 03:07:10;;;;;;;10.13;3.90;;;;;;;15.45;80.40;101621.00;5001190;28;20029;-75
2022/08/27 03:09:36;;;;;;;9.50;4.07;;;;;;;15.44;80.09;101619.34;5006078;28;20034;-75
2022/08/27 03:12:02;;;;;;;8.35;3.80;;;;;;;15.48;80.21;101625.94;5001663;28;20419;-74
2022/08/27 03:14:28;;;;;;;12.32;4.10;;;;;;;15.44;79.76;101614.94;4993484;28;20458;-75
2022/08/27 03:16:54;;;;;;;10.95;4.13;;;;;;;15.49;80.11;101625.00;4990847;28;20029;-75
2022/08/27 03:19:20;;;;;;;8.55;3.85;;;;;;;15.51;80.03;101623.06;4994358;28;20038;-74
2022/08/27 03:21:46;;;;;;;9.00;3.58;;;;;;;15.44;80.35;101629.81;5000012;28;20053;-74
2022/08/27 03:24:11;;;;;;;9.25;4.03;;;;;;;15.35;80.94;101624.41;4994594;28;20038;-73
2022/08/27 03:26:38;;;;;;;7.65;3.63;;;;;;;15.35;80.87;101627.03;4998965;28;20024;-74
2022/08/27 03:29:04;;;;;;;8.32;3.60;;;;;;;15.45;80.80;101631.44;4995532;28;20022;-75
2022/08/27 03:31:30;;;;;;;8.27;3.80;;;;;;;15.41;80.81;101626.47;4994708;28;20037;-74
2022/08/27 03:34:00;;;;;;;6.57;3.42;;;;;;;15.41;80.98;101631.69;5002312;28;20025;-75
2022/08/27 03:36:28;;;;;;;7.68;3.65;;;;;;;15.35;81.12;101628.81;4996086;28;20363;-75
2022/08/27 03:38:54;;;;;;;8.02;3.72;;;;;;;15.40;80.71;101630.06;4993685;28;20030;-74
2022/08/27 03:41:21;;;;;;;9.35;3.80;;;;;;;15.33;81.19;101633.38;4996762;28;20025;-75
2022/08/27 03:43:46;;;;;;;9.73;3.88;;;;;;;15.40;80.93;101645.75;4992906;28;20037;-74
2022/08/27 03:46:12;;;;;;;9.15;3.60;;;;;;;15.46;80.99;101633.09;4999049;28;20018;-74
2022/08/27 03:48:37;;;;;;;7.95;3.72;;;;;;;15.46;80.89;101643.53;4999152;28;20462;-74
2022/08/27 03:51:09;;;;;;;8.18;3.85;;;;;;;15.43;80.93;101636.00;5001894;28;20504;-74
2022/08/27 03:53:36;;;;;;;7.75;3.95;;;;;;;15.47;80.81;101635.56;4996211;28;20536;-75
2022/08/27 03:56:03;;;;;;;10.70;3.97;;;;;;;15.53;80.28;101634.19;5003032;28;20036;-75
2022/08/27 03:58:29;;;;;;;8.50;3.90;;;;;;;15.47;80.60;101630.34;4996637;28;20030;-74
2022/08/27 04:00:54;;;;;;;8.98;3.90;;;;;;;15.44;81.31;101629.81;5001633;28;20064;-74
2022/08/27 04:03:20;;;;;;;9.50;4.10;;;;;;;15.46;80.80;101627.88;5000018;28;20040;-74
2022/08/27 04:05:51;;;;;;;10.48;3.95;;;;;;;15.50;81.11;101629.25;5008302;28;20884;-74
2022/08/27 04:08:16;;;;;;;10.45;3.72;;;;;;;15.53;80.78;101634.19;5006968;28;20038;-74
2022/08/27 04:10:42;;;;;;;10.07;4.10;;;;;;;15.52;81.18;101633.38;5009301;28;20026;-75
2022/08/27 04:13:07;;;;;;;12.88;4.30;;;;;;;15.47;81.63;101629.50;4996546;28;20030;-74
2022/08/27 04:15:33;;;;;;;9.88;3.70;;;;;;;15.52;82.22;101627.31;5001685;28;20034;-74
2022/08/27 04:17:58;;;;;;;8.82;4.10;;;;;;;15.52;81.85;101624.69;5002711;28;20030;-75
2022/08/27 04:20:24;;;;;;;9.05;3.95;;;;;;;15.54;81.44;101633.22;4997180;28;20347;-74
2022/08/27 04:22:49;;;;;;;8.27;3.92;;;;;;;15.51;81.37;101630.91;4995852;28;20069;-74
2022/08/27 04:25:15;;;;;;;8.73;3.78;;;;;;;15.52;81.38;101627.31;5008686;28;20386;-75
2022/08/27 04:27:40;;;;;;;8.63;3.80;;;;;;;15.56;81.17;101628.69;4996262;28;20038;-74
2022/08/27 04:30:08;;;;;;;11.57;4.05;;;;;;;15.48;81.64;101626.75;5000849;28;20026;-74
2022/08/27 04:32:34;;;;;;;7.85;3.92;;;;;;;15.54;81.10;101630.59;4989739;28;20434;-74
2022/08/27 04:35:00;;;;;;;8.07;3.70;;;;;;;15.54;81.44;101625.38;4995761;28;20473;-74
2022/08/27 04:37:29;;;;;;;9.35;4.15;;;;;;;15.51;81.55;101630.91;4995569;28;20113;-76
2022/08/27 04:39:55;;;;;;;7.55;3.85;;;;;;;15.51;81.39;101628.28;4989761;28;20054;-75
2022/08/27 04:42:20;;;;;;;9.68;4.30;;;;;;;15.53;81.30;101628.97;5001596;28;20037;-75
2022/08/27 04:44:46;;;;;;;8.55;3.90;;;;;;;15.47;81.82;101635.56;4972452;28;20030;-75
2022/08/27 04:47:13;;;;;;;9.15;4.18;;;;;;;15.54;82.14;101638.44;4990174;28;20037;-75
2022/08/27 04:49:38;;;;;;;10.18;4.10;;;;;;;15.49;81.87;101627.59;4990730;28;20525;-75
2022/08/27 04:52:04;;;;;;;10.52;4.20;;;;;;;15.46;82.06;101626.06;4994327;28;20033;-75
2022/08/27 04:54:30;;;;;;;9.35;3.80;;;;;;;15.56;82.10;101641.78;5001845;28;20044;-74
2022/08/27 04:56:55;;;;;;;9.43;3.90;;;;;;;15.60;81.76;101641.38;4997201;28;20064;-74
2022/08/27 04:59:21;;;;;;;8.40;3.70;;;;;;;15.62;82.13;101638.59;4999395;28;20442;-74
2022/08/27 05:01:47;;;;;;;9.07;4.20;;;;;;;15.65;82.44;101643.56;4993313;28;20073;-75
2022/08/27 05:04:14;;;;;;;10.35;3.92;;;;;;;15.66;82.64;101642.63;5008485;28;20021;-74
2022/08/27 05:06:41;;;;;;;10.23;4.33;;;;;;;15.68;82.62;101648.53;5008445;28;20139;-74
2022/08/27 05:09:07;;;;;;;8.45;4.30;;;;;;;15.68;82.36;101652.94;5007923;28;20050;-74
2022/08/27 05:11:33;;;;;;;9.23;4.47;;;;;;;15.66;82.17;101655.72;5008189;28;20483;-74
2022/08/27 05:14:09;;;;;;;8.23;4.00;;;;;;;15.67;81.83;101657.34;5008681;28;20513;-74
2022/08/27 05:16:35;;;;;;;9.63;4.38;;;;;;;15.59;81.59;101641.47;4990149;28;20018;-75
2022/08/27 05:19:02;;;;;;;9.20;4.65;;;;;;;15.60;82.04;101651.00;4999747;28;20026;-73
2022/08/27 05:21:31;;;;;;;12.50;4.97;;;;;;;15.55;82.20;101650.59;4990823;28;20172;-74
2022/08/27 05:23:59;;;;;;;9.48;5.00;;;;;;;15.63;82.09;101658.59;5001371;28;20026;-74
2022/08/27 05:26:25;;;;;;;8.82;4.85;;;;;;;15.64;82.27;101657.63;4989741;28;20051;-75
2022/08/27 05:28:50;;;;;;;8.38;4.57;;;;;;;15.55;82.46;101658.44;5008311;28;20029;-74
2022/08/27 05:31:18;;;;;;;8.63;4.55;;;;;;;15.55;82.30;101650.59;4973299;28;20037;-74
2022/08/27 05:33:43;;;;;;;10.82;5.00;;;;;;;15.50;83.25;101658.00;4988915;28;20486;-74
2022/08/27 05:36:21;;;;;;;8.00;4.50;;;;;;;15.53;83.41;101662.94;4995336;28;20040;-74
2022/08/27 05:38:48;;;;;;;8.52;4.65;;;;;;;15.51;83.35;101662.28;4991806;28;20026;-74
2022/08/27 05:41:17;;;;;;;9.70;4.50;;;;;;;15.51;83.53;101662.28;4990464;28;20026;-75
2022/08/27 05:43:44;;;;;;;8.75;4.93;;;;;;;15.49;83.53;101666.81;5001391;28;20032;-74
2022/08/27 05:46:11;;;;;;;7.47;4.30;;;;;;;15.52;83.66;101653.47;5007793;28;20091;-74
2022/08/27 05:48:38;;;;;;;10.43;4.30;;;;;;;15.45;84.41;101657.59;4995352;28;20076;-74
2022/08/27 05:51:13;;;;;;;11.40;4.60;;;;;;;15.55;83.58;101658.44;4999560;28;20277;-74
2022/08/27 05:53:39;;;;;;;9.70;4.38;;;;;;;15.67;82.64;101667.81;4994532;28;20034;-74
2022/08/27 05:56:12;;;;;;;8.45;4.50;;;;;;;15.65;83.16;101659.25;4997287;28;20073;-73
2022/08/27 06:01:23;;;;;;;9.15;4.95;;;;;;;15.73;82.10;101661.22;4999412;28;20081;-75
2022/08/27 06:03:48;;;;;;;11.85;4.93;;;;;;;15.80;82.07;101652.66;4993987;28;20038;-74
2022/08/27 06:06:14;;;;;;;11.07;5.10;;;;;;;15.88;82.23;101654.56;4971001;28;20100;-75
2022/08/27 06:08:40;;;;;;;9.52;5.55;;;;;;;15.96;81.68;101661.75;4988793;28;20026;-74
2022/08/27 06:11:06;;;;;;;9.00;5.10;;;;;;;16.04;81.64;101659.25;4972930;28;20071;-75
2022/08/27 06:13:33;;;;;;;10.48;5.50;;;;;;;16.09;81.94;101657.03;4986304;28;20045;-78
2022/08/27 06:16:12;;;;;;;9.43;5.78;;;;;;;16.22;81.64;101668.00;4990574;28;20033;-74
2022/08/27 06:18:39;;;;;;;10.05;5.60;;;;;;;16.27;81.19;101665.81;4988007;28;20033;-75
2022/08/27 06:21:05;;;;;;;9.05;5.72;;;;;;;16.33;79.94;101667.84;4993148;28;20042;-75
2022/08/27 06:23:30;;;;;;;9.40;4.90;;;;;;;16.41;79.24;101672.41;4993781;28;20036;-75
2022/08/27 06:25:57;;;;;;;11.13;5.10;;;;;;;16.39;77.96;101669.06;4981098;28;20034;-75
2022/08/27 06:28:28;;;;;;;10.15;5.55;;;;;;;16.43;78.26;101670.44;4991297;28;20047;-75
2022/08/27 06:31:02;;;;;;;9.35;5.20;;;;;;;16.52;78.34;101668.78;4993763;28;20018;-75
2022/08/27 06:33:27;;;;;;;9.50;5.28;;;;;;;16.51;77.28;101661.88;4996639;28;20488;-75
2022/08/27 06:35:52;;;;;;;9.55;4.70;;;;;;;16.59;76.71;101669.84;4993042;28;20021;-75
2022/08/27 06:38:18;;;;;;;9.50;4.97;;;;;;;16.57;76.18;101669.16;4996866;28;20133;-75
2022/08/27 06:40:43;;;;;;;9.40;4.72;;;;;;;16.65;76.71;101664.84;4990561;28;20462;-75
2022/08/27 06:43:08;;;;;;;8.35;4.38;;;;;;;16.66;77.10;101670.91;5004809;28;20421;-75
2022/08/27 06:45:38;;;;;;;10.57;4.40;;;;;;;16.70;77.08;101661.81;5001575;28;20054;-75
2022/08/27 06:48:03;;;;;;;8.18;4.13;;;;;;;16.75;75.83;101669.28;5007403;28;20060;-75
2022/08/27 06:50:29;;;;;;;8.43;4.35;;;;;;;16.69;74.71;101668.03;5001289;28;20033;-74
2022/08/27 06:52:54;;;;;;;8.15;4.10;;;;;;;16.78;75.11;101664.56;4996159;28;20502;-75
2022/08/27 06:55:19;;;;;;;10.90;4.43;;;;;;;16.79;74.46;101674.06;4991678;28;20022;-75
2022/08/27 06:57:45;;;;;;;8.90;4.13;;;;;;;16.88;74.76;101664.50;5000282;28;20030;-76
2022/08/27 07:00:11;;;;;;;6.93;3.97;;;;;;;16.95;73.90;101671.63;4998093;28;20037;-75
2022/08/27 07:02:37;;;;;;;8.40;3.75;;;;;;;17.01;73.89;101666.78;5002304;28;20748;-75
2022/08/27 07:05:04;;;;;;;8.60;4.20;;;;;;;17.05;74.48;101670.78;5006087;28;20026;-75
2022/08/27 07:07:29;;;;;;;8.30;4.40;;;;;;;17.09;73.09;101672.09;5005711;28;20026;-75
2022/08/27 07:09:55;;;;;;;9.38;4.00;;;;;;;17.18;73.22;101661.56;5005921;28;20381;-75
2022/08/27 07:12:21;;;;;;;8.57;4.25;;;;;;;17.18;73.06;101672.06;4995894;28;20065;-75
2022/08/27 07:14:46;;;;;;;8.75;3.88;;;;;;;17.28;73.19;101653.66;4991660;28;20144;-75
2022/08/27 07:17:12;;;;;;;7.95;3.80;;;;;;;17.41;71.61;101664.59;4990449;28;20044;-75
2022/08/27 07:19:37;;;;;;;6.90;3.28;;;;;;;17.46;71.33;101658.91;4990565;28;20034;-75
2022/08/27 07:22:03;;;;;;;6.20;3.20;;;;;;;17.48;70.27;101670.88;4989306;28;20058;-75
2022/08/27 07:24:29;;;;;;;7.90;3.50;;;;;;;17.45;69.74;101673.81;4993863;28;20022;-75
2022/08/27 07:26:55;;;;;;;9.18;3.25;;;;;;;17.63;69.25;101680.84;4989723;28;20045;-74
2022/08/27 07:29:20;;;;;;;8.05;3.58;;;;;;;17.75;69.80;101669.19;4988876;28;20430;-74
2022/08/27 07:31:46;;;;;;;7.43;3.17;;;;;;;17.85;68.42;101672.56;4991209;28;20022;-74
2022/08/27 07:34:11;;;;;;;7.30;3.17;;;;;;;17.95;68.70;101681.19;4993053;28;20026;-75
2022/08/27 07:36:37;;;;;;;5.90;2.92;;;;;;;18.11;69.04;101679.63;4990216;28;20062;-74
2022/08/27 07:39:03;;;;;;;6.95;2.45;;;;;;;18.25;68.43;101681.72;4991756;28;20021;-75
2022/08/27 07:41:29;;;;;;;6.28;2.65;;;;;;;18.30;67.38;101679.44;4991222;28;20474;-75
2022/08/27 07:46:38;;;;;;;4.20;2.10;;;;;;;18.25;64.39;101684.34;4988542;28;20118;-75
2022/08/27 07:49:04;;;;;;;6.78;2.50;;;;;;;18.24;63.56;101683.50;4993959;28;20120;-76
2022/08/27 07:51:31;;;;;;;6.30;2.67;;;;;;;18.35;64.27;101681.59;4991439;28;20496;-76
2022/08/27 07:53:57;;;;;;;4.47;2.10;;;;;;;18.42;64.62;101693.97;4991872;28;20096;-76
2022/08/27 07:56:22;;;;;;;5.85;2.20;;;;;;;18.44;65.97;101685.91;4990421;28;20462;-76
2022/08/27 07:58:48;;;;;;;6.78;2.50;;;;;;;18.47;65.21;101683.81;4996651;28;20030;-76
2022/08/27 08:01:14;;;;;;;5.40;2.25;;;;;;;18.55;65.06;101698.78;4994293;28;20109;-75
2022/08/27 08:03:40;;;;;;;6.45;2.22;;;;;;;18.63;65.66;101695.38;5001526;28;20029;-76
2022/08/27 08:06:11;;;;;;;6.70;2.25;;;;;;;18.62;64.96;101689.28;5002187;28;20370;-76
2022/08/27 08:08:41;;;;;;;7.90;2.60;;;;;;;18.67;64.44;101688.81;4995579;28;20030;-76
2022/08/27 08:11:10;;;;;;;6.80;2.60;;;;;;;18.77;65.24;101703.53;4995422;28;20030;-75
2022/08/27 08:13:35;;;;;;;;;;;;;;;18.92;66.37;101695.84;5002530;28;20041;-76
2022/08/27 08:16:01;;;;;;;7.30;2.75;;;;;;;18.84;65.67;101694.03;4997714;28;19914;-76
2022/08/27 08:18:27;;;;;;;7.35;2.42;;;;;;;18.81;63.88;101694.34;5001475;28;20034;-77
2022/08/27 08:20:58;;;;;;;7.03;2.33;;;;;;;18.98;64.35;101687.38;5005084;28;20030;-76
2022/08/27 08:23:24;;;;;;;7.45;2.40;;;;;;;19.03;64.16;101700.81;4986303;28;20028;-75
2022/08/27 08:25:50;;;;;;;5.05;2.00;;;;;;;18.96;61.43;101697.19;4994492;28;20030;-76
2022/08/27 08:28:15;;;;;;;5.75;2.00;;;;;;;18.99;61.41;101696.91;4996472;28;20030;-75
2022/08/27 08:30:42;;;;;;;6.40;2.20;;;;;;;18.96;61.21;101691.94;4995304;28;20096;-75
2022/08/27 08:33:08;;;;;;;4.97;2.15;;;;;;;19.06;60.82;101700.53;5002883;28;20116;-75
2022/08/27 08:35:37;;;;;;;79.03;7.13;;;;;;;19.20;62.14;101704.34;5003014;28;20159;-78
2022/08/27 08:38:02;;;;;;;6.22;2.00;;;;;;;19.17;59.77;101701.22;4985856;28;20025;-76
2022/08/27 08:40:33;;;;;;;4.95;2.08;;;;;;;19.13;59.85;101694.63;5005212;28;20378;-75
2022/08/27 08:43:00;;;;;;;5.15;1.95;;;;;;;19.21;61.04;101702.53;5002717;28;20030;-76
2022/08/27 08:45:31;;;;;;;6.18;2.10;;;;;;;19.38;61.54;101701.59;4999523;28;20088;-76
2022/08/27 08:48:16;;;;;;;5.95;1.98;;;;;;;19.45;61.29;101710.50;5002819;28;20467;-77
2022/08/27 08:51:02;;;;;;;6.60;2.33;;;;;;;19.48;60.43;101707.53;4995329;28;20065;-76
2022/08/27 08:53:44;;;;;;;5.47;1.83;;;;;;;19.33;60.50;101719.69;4993480;28;20029;-77
2022/08/27 08:56:16;;;;;;;5.65;2.10;;;;;;;19.06;58.66;101705.78;4993584;28;20022;-77
2022/08/27 08:59:26;;;;;;;4.88;1.90;;;;;;;19.26;59.81;101713.41;4994223;28;20419;-76
2022/08/27 09:01:52;;;;;;;5.38;2.10;;;;;;;19.53;61.18;101705.22;4924897;29;20130;-76
2022/08/27 09:04:17;;;;;;;6.78;2.10;;;;;;;19.42;58.53;101702.91;4926715;29;20561;-77
2022/08/27 09:06:53;;;;;;;5.60;1.75;;;;;;;19.41;58.74;101709.16;4925886;29;20044;-77
2022/08/27 09:09:26;;;;;;;6.18;2.00;;;;;;;19.44;59.34;101710.63;4922767;29;20068;-76
2022/08/27 09:12:01;;;;;;;4.30;1.75;;;;;;;19.47;58.84;101711.16;4928109;29;20038;-77
2022/08/27 09:14:48;;;;;;;3.33;1.48;;;;;;;19.46;59.41;101720.03;4928408;29;20058;-77
2022/08/27 09:17:14;;;;;;;5.95;1.83;;;;;;;19.37;58.75;101705.19;4920874;29;20047;-77
2022/08/27 09:19:39;;;;;;;6.80;1.80;;;;;;;19.36;58.07;101724.59;4923784;29;20213;-77
2022/08/27 09:22:20;;;;;;;6.75;1.83;;;;;;;19.31;58.27;101721.63;4924284;29;20051;-77
2022/08/27 09:25:06;;;;;;;4.95;1.50;;;;;;;19.33;57.92;101724.94;4921786;29;20031;-77
2022/08/27 09:27:35;;;;;;;4.32;1.60;;;;;;;19.26;57.46;101718.66;4923654;29;20031;-77
2022/08/27 09:30:09;;;;;;;6.20;1.70;;;;;;;19.46;58.90;101722.66;4924528;29;20468;-78
2022/08/27 09:32:34;;;;;;;4.13;1.65;;;;;;;19.57;57.64;101716.28;4923958;29;20043;-77
2022/08/27 09:35:04;;;;;;;4.60;1.80;;;;;;;19.60;57.83;101722.03;4936388;28;20053;-78
2022/08/27 09:37:38;;;;;;;5.40;1.77;;;;;;;19.69;58.03;101719.44;5001352;28;20025;-77
2022/08/27 09:40:22;;;;;;;4.32;1.52;;;;;;;19.84;57.59;101717.78;4988449;28;20041;-77
2022/08/27 09:42:52;;;;;;;4.07;1.73;;;;;;;19.93;58.18;101722.06;5004149;28;20037;-78
2022/08/27 09:45:22;;;;;;;5.13;2.03;;;;;;;20.09;56.80;101716.81;5006171;28;20466;-76
2022/08/27 09:47:50;;;;;;;5.63;1.90;;;;;;;20.34;56.49;101722.03;5005791;28;20056;-77
2022/08/27 09:50:19;;;;;;;;;;;;;;;20.40;56.29;101716.09;5007565;28;20054;-80
2022/08/27 09:52:57;;;;;;;4.72;1.67;;;;;;;20.26;55.10;101717.63;5007675;28;20220;-81
2022/08/27 09:55:44;;;;;;;5.28;1.50;;;;;;;20.26;56.17;101717.63;5004694;28;20108;-79
2022/08/27 09:58:26;;;;;;;4.05;1.58;;;;;;;20.30;56.35;101708.41;5006081;28;20033;-79
2022/08/27 10:01:02;;;;;;;4.65;1.52;;;;;;;20.47;55.43;101713.66;5006383;28;20309;-77
2022/08/27 10:03:28;;;;;;;6.15;1.80;;;;;;;20.43;54.17;101713.97;5002927;28;20498;-80
2022/08/27 10:05:54;;;;;;;5.25;1.65;;;;;;;20.30;53.53;101723.34;5004541;28;20509;-79
2022/08/27 10:08:44;;;;;;;4.75;1.70;;;;;;;20.19;54.38;101711.38;5004210;28;20034;-79
2022/08/27 10:11:24;;;;;;;4.68;1.75;;;;;;;20.44;55.18;101693.69;4998449;28;20485;-78
2022/08/27 10:14:13;;;;;;;6.18;1.90;;;;;;;20.45;54.34;101711.16;4995749;28;20030;-78
2022/08/27 10:17:04;;;;;;;3.88;1.35;;;;;;;20.48;54.22;101716.13;4991438;28;20029;-77
2022/08/27 10:19:54;;;;;;;5.22;1.77;;;;;;;20.40;54.37;101706.38;4988157;28;20033;-78
2022/08/27 10:22:45;;;;;;;4.60;1.60;;;;;;;20.36;54.47;101722.72;4988131;28;20510;-79
2022/08/27 10:25:14;;;;;;;4.97;1.60;;;;;;;20.34;54.28;101708.88;4987927;28;20529;-78
2022/08/27 10:28:15;;;;;;;4.13;1.60;;;;;;;20.67;54.67;101705.19;4987330;28;20034;-77
2022/08/27 10:30:43;;;;;;;4.13;1.80;;;;;;;21.04;53.35;101701.06;4974819;28;20121;-78
2022/08/27 10:33:43;;;;;;;5.45;1.48;;;;;;;21.24;53.72;101705.94;4987964;28;20029;-78
2022/08/27 10:36:52;;;;;;;5.75;1.88;;;;;;;21.12;52.84;101705.50;4998179;28;20062;-75
2022/08/27 10:39:34;;;;;;;12.93;2.05;;;;;;;21.28;52.56;101701.97;4988082;28;20022;-75
2022/08/27 10:41:59;;;;;;;5.45;1.67;;;;;;;21.09;50.82;101709.28;5001261;28;20037;-75
2022/08/27 10:44:40;;;;;;;3.67;1.50;;;;;;;21.03;52.58;101715.25;4988474;28;20026;-76
2022/08/27 10:47:08;;;;;;;5.22;1.67;;;;;;;20.94;52.15;101711.03;4989980;28;20025;-75
2022/08/27 10:49:57;;;;;;;2.75;1.58;;;;;;;21.06;53.13;101699.09;4986173;28;20038;-75
2022/08/27 10:52:55;;;;;;;7.03;1.70;;;;;;;21.07;53.33;101695.47;4989475;28;20022;-75
2022/08/27 10:55:22;;;;;;;3.70;1.40;;;;;;;21.04;52.64;101711.63;4968166;28;20062;-75
2022/08/27 10:58:10;;;;;;;5.28;1.90;;;;;;;21.19;52.59;101709.91;4996663;28;20034;-75
2022/08/27 11:00:58;;;;;;;5.25;1.83;;;;;;;21.20;51.92;101701.00;5002774;28;20096;-75
2022/08/27 11:03:43;;;;;;;5.72;1.70;;;;;;;21.19;51.89;101709.91;4994774;28;20316;-75
2022/08/27 11:06:22;;;;;;;5.68;1.50;;;;;;;21.11;50.87;101702.06;4990920;28;20038;-75
2022/08/27 11:09:05;;;;;;;4.72;1.65;;;;;;;21.11;51.37;101699.41;4991542;28;20022;-76
2022/08/27 11:11:31;;;;;;;4.97;1.63;;;;;;;21.11;51.78;101706.50;4987847;28;20030;-76
2022/08/27 11:13:58;;;;;;;5.97;2.00;;;;;;;20.92;50.24;101697.19;5000853;28;20030;-76
2022/08/27 11:16:31;;;;;;;5.27;1.73;;;;;;;20.96;51.25;101698.50;5000508;28;20029;-76
2022/08/27 11:19:18;;;;;;;5.60;1.77;;;;;;;21.07;52.24;101698.09;4992147;28;20539;-76
2022/08/27 11:22:04;;;;;;;4.95;1.40;;;;;;;21.23;52.70;101693.75;4993329;28;20534;-76
2022/08/27 11:24:47;;;;;;;5.55;1.70;;;;;;;21.29;52.37;101693.06;4988806;28;20063;-75
2022/08/27 11:27:18;;;;;;;5.60;1.67;;;;;;;21.30;50.86;101700.00;4999993;28;20077;-75
2022/08/27 11:30:03;;;;;;;3.30;1.60;;;;;;;21.35;51.94;101693.19;5004739;28;20033;-77
2022/08/27 11:32:50;;;;;;;5.25;1.80;;;;;;;21.29;51.17;101698.31;4995863;28;20124;-75
2022/08/27 11:35:38;;;;;;;4.72;1.60;;;;;;;21.26;51.68;101696.03;4991704;28;20134;-76
2022/08/27 11:38:18;;;;;;;5.80;1.70;;;;;;;21.33;52.26;101689.06;4995939;28;20026;-76
2022/08/27 11:41:09;;;;;;;6.35;2.08;;;;;;;21.35;50.99;101697.66;4992559;28;20057;-76